Time;durP1;ratioP1;P1;durP2;ratioP2;P2;SDS_P1;SDS_P2;PMS_P1;PMS_P2;Temp;Humidity;BMP_temperature;BMP_pressure;BME280_temperature;BME280_humidity;BME280_pressure;Samples;Min_cycle;Max_cycle;Signal;HPM_P1;HPM_P2
2021/10/28 00:13:51;;;;;;;0.43;0.43;;;;;;;15.80;100.00;99188.44;6336354;22;20029;-46
2021/10/28 00:16:58;;;;;;;1.05;0.30;;;;;;;15.83;100.00;99185.31;6336098;22;20431;-47
2021/10/28 00:20:01;;;;;;;7.13;0.47;;;;;;;15.82;100.00;99188.66;6336517;22;20080;-47
2021/10/28 00:23:05;;;;;;;0.93;0.35;;;;;;;15.82;100.00;99185.84;6335922;22;20108;-47
2021/10/28 00:26:10;;;;;;;10.43;1.27;;;;;;;15.75;100.00;99186.44;6335337;22;20471;-47
2021/10/28 00:29:20;;;;;;;0.63;0.20;;;;;;;15.55;100.00;99181.31;6336537;22;20085;-47
2021/10/28 00:32:22;;;;;;;1.17;0.45;;;;;;;15.85;100.00;99185.53;6336226;22;20346;-47
2021/10/28 00:35:26;;;;;;;0.47;0.47;;;;;;;15.83;100.00;99170.53;6335636;22;20056;-47
2021/10/28 00:38:28;;;;;;;0.22;0.20;;;;;;;15.69;100.00;99171.69;6316166;22;20101;-46
2021/10/28 00:41:31;;;;;;;0.50;0.45;;;;;;;15.64;100.00;99178.13;6335223;22;20080;-47
2021/10/28 00:44:34;;;;;;;0.95;0.45;;;;;;;15.64;100.00;99167.66;6335631;22;20673;-47
2021/10/28 00:47:40;;;;;;;0.20;0.10;;;;;;;15.69;100.00;99166.09;6335804;22;20022;-47
2021/10/28 00:50:42;;;;;;;0.68;0.40;;;;;;;15.81;100.00;99156.25;6336436;22;20079;-47
2021/10/28 00:53:46;;;;;;;0.10;0.10;;;;;;;15.81;100.00;99150.63;6335813;22;20045;-47
2021/10/28 00:56:50;;;;;;;1.10;0.32;;;;;;;15.83;100.00;99145.25;6335966;22;20037;-47
2021/10/28 00:59:53;;;;;;;0.65;0.32;;;;;;;15.78;100.00;99141.22;6335767;22;20021;-47
2021/10/28 01:02:56;;;;;;;0.20;0.20;;;;;;;15.72;100.00;99134.16;6336090;22;20107;-47
2021/10/28 01:05:59;;;;;;;0.20;0.10;;;;;;;15.87;100.00;99120.44;6316845;22;20026;-47
2021/10/28 01:09:03;;;;;;;0.85;0.35;;;;;;;15.88;100.00;99127.56;6335751;22;20021;-47
2021/10/28 01:12:08;;;;;;;0.40;0.35;;;;;;;15.88;100.00;99119.91;6335954;22;20029;-47
2021/10/28 01:15:14;;;;;;;0.45;0.25;;;;;;;15.81;100.00;99116.94;6336586;22;20026;-47
2021/10/28 01:18:17;;;;;;;0.43;0.20;;;;;;;15.71;100.00;99119.38;6337919;22;20071;-47
2021/10/28 01:21:21;;;;;;;0.57;0.30;;;;;;;15.62;100.00;99121.75;6338366;22;20335;-47
2021/10/28 01:24:24;;;;;;;0.10;0.10;;;;;;;15.70;100.00;99114.28;6338015;22;20068;-47
2021/10/28 01:27:27;;;;;;;3.88;0.47;;;;;;;15.57;100.00;99102.97;6337908;22;20061;-47
2021/10/28 01:30:30;;;;;;;0.65;0.20;;;;;;;15.26;100.00;99095.09;6337982;22;20075;-47
2021/10/28 01:33:34;;;;;;;4.47;0.20;;;;;;;15.04;100.00;99094.03;6338126;22;20344;-47
2021/10/28 01:36:37;;;;;;;0.10;0.00;;;;;;;15.17;100.00;99085.75;6338088;22;20064;-47
2021/10/28 01:39:41;;;;;;;0.45;0.45;;;;;;;15.09;100.00;99082.00;6337954;22;20026;-47
2021/10/28 01:42:51;;;;;;;0.50;0.15;;;;;;;14.98;100.00;99073.72;6338310;22;20075;-47
2021/10/28 01:45:54;;;;;;;1.08;0.50;;;;;;;14.83;100.00;99087.38;6337675;22;20021;-47
2021/10/28 01:48:57;;;;;;;6.97;0.38;;;;;;;14.79;100.00;99092.47;6337852;22;20021;-47
2021/10/28 01:52:01;;;;;;;0.55;0.30;;;;;;;14.71;100.00;99074.72;6338006;22;20022;-47
2021/10/28 01:55:09;;;;;;;4.95;0.40;;;;;;;14.92;100.00;99077.84;6338130;22;20029;-47
2021/10/28 01:58:14;;;;;;;2.42;0.85;;;;;;;14.97;100.00;99069.38;6337790;22;20018;-47
2021/10/28 02:01:18;;;;;;;0.10;0.10;;;;;;;14.72;100.00;99076.25;6338368;22;20033;-47
2021/10/28 02:04:21;;;;;;;1.48;0.80;;;;;;;14.89;100.00;99060.03;6337251;22;20438;-47
2021/10/28 02:07:24;;;;;;;0.10;0.10;;;;;;;14.94;100.00;99048.00;6337919;22;20144;-47
2021/10/28 02:10:27;;;;;;;5.90;0.80;;;;;;;14.91;100.00;99042.69;6337585;22;20022;-47
2021/10/28 02:13:30;;;;;;;0.75;0.32;;;;;;;14.85;100.00;99037.16;6339767;22;20091;-47
2021/10/28 02:16:34;;;;;;;1.33;0.28;;;;;;;14.79;100.00;99033.63;6339301;22;20053;-47
2021/10/28 02:19:38;;;;;;;0.98;0.32;;;;;;;14.85;100.00;99031.53;6339154;22;20022;-47
2021/10/28 02:22:42;;;;;;;1.05;0.65;;;;;;;14.93;100.00;99024.06;6320077;22;20387;-47
2021/10/28 02:25:45;;;;;;;2.72;1.02;;;;;;;14.89;100.00;99017.22;6339054;22;20029;-47
2021/10/28 02:28:48;;;;;;;0.47;0.25;;;;;;;14.82;100.00;99015.75;6339202;22;20149;-47
2021/10/28 02:31:51;;;;;;;0.85;0.20;;;;;;;14.90;100.00;99016.69;6339709;22;20021;-47
2021/10/28 02:34:54;;;;;;;2.70;0.65;;;;;;;15.03;100.00;99011.19;6339386;22;20021;-47
2021/10/28 02:37:58;;;;;;;0.65;0.40;;;;;;;14.68;100.00;99002.91;6339555;22;20431;-47
2021/10/28 02:41:02;;;;;;;9.05;0.35;;;;;;;14.65;100.00;99015.16;6339201;22;20025;-47
2021/10/28 02:44:05;;;;;;;0.47;0.10;;;;;;;14.63;100.00;99000.91;6320763;22;20026;-47
2021/10/28 02:47:08;;;;;;;1.70;0.80;;;;;;;14.63;100.00;99000.91;6339037;22;20029;-47
2021/10/28 02:50:11;;;;;;;0.40;0.28;;;;;;;14.67;100.00;98998.56;6339509;22;20473;-47
2021/10/28 02:53:14;;;;;;;2.47;0.85;;;;;;;14.89;100.00;98995.56;6319771;22;20458;-48
2021/10/28 02:56:18;;;;;;;0.50;0.25;;;;;;;15.08;100.00;98993.56;6339263;22;20018;-47
2021/10/28 02:59:22;;;;;;;0.45;0.30;;;;;;;15.24;100.00;98993.88;6339012;22;20029;-47
2021/10/28 03:02:25;;;;;;;4.13;0.45;;;;;;;15.33;100.00;98988.69;6339250;22;20068;-47
2021/10/28 03:05:29;;;;;;;0.30;0.30;;;;;;;15.18;100.00;98988.34;6338892;22;20102;-47
2021/10/28 03:08:33;;;;;;;0.75;0.20;;;;;;;15.27;100.00;98978.81;6338230;22;20063;-47
2021/10/28 03:11:37;;;;;;;0.30;0.30;;;;;;;15.24;100.00;98975.00;6339056;22;20075;-47
2021/10/28 03:27:57;;;;;;;1.48;0.65;;;;;;;15.30;100.00;98967.28;6338977;22;20101;-47
2021/10/28 03:31:00;;;;;;;0.20;0.20;;;;;;;15.33;100.00;98960.63;6339190;22;20022;-47
2021/10/28 03:34:03;;;;;;;0.10;0.10;;;;;;;15.12;100.00;98968.78;6339080;22;20054;-47
2021/10/28 03:37:15;;;;;;;0.52;0.30;;;;;;;15.28;100.00;98969.84;6338836;22;20069;-49
2021/10/28 03:40:43;;;;;;;0.50;0.30;;;;;;;15.38;100.00;98978.66;6338102;22;20106;-48
2021/10/28 03:47:29;;;;;;;0.22;0.15;;;;;;;15.65;100.00;98978.31;6338531;22;20025;-48
2021/10/28 04:00:36;;;;;;;2.17;0.40;;;;;;;15.78;100.00;98955.16;6338813;22;20091;-48
2021/10/28 04:30:07;;;;;;;0.68;0.43;;;;;;;15.90;100.00;98922.81;6310050;22;20068;-47
2021/10/28 04:33:10;;;;;;;1.90;0.40;;;;;;;15.92;100.00;98920.22;6338180;22;20399;-47
2021/10/28 04:36:14;;;;;;;0.15;0.15;;;;;;;15.96;100.00;98922.75;6338382;22;20018;-48
2021/10/28 04:39:17;;;;;;;7.57;0.30;;;;;;;15.98;100.00;98928.56;6338380;22;20044;-47
2021/10/28 04:42:21;;;;;;;0.15;0.15;;;;;;;16.04;100.00;98918.00;6338317;22;20025;-47
2021/10/28 04:45:24;;;;;;;0.10;0.00;;;;;;;15.98;100.00;98915.31;6318640;22;20071;-48
2021/10/28 04:48:27;;;;;;;6.22;0.57;;;;;;;16.00;100.00;98909.13;6338045;22;20041;-48
2021/10/28 04:51:30;;;;;;;1.40;0.32;;;;;;;15.69;100.00;98902.22;6338047;22;20022;-47
2021/10/28 04:54:33;;;;;;;0.45;0.45;;;;;;;15.60;100.00;98899.81;6338329;22;20566;-47
2021/10/28 04:57:36;;;;;;;0.10;0.00;;;;;;;15.67;100.00;98902.75;6338422;22;20363;-48
2021/10/28 05:00:39;;;;;;;0.65;0.25;;;;;;;15.71;100.00;98894.03;6338258;22;20025;-47
2021/10/28 05:03:42;;;;;;;0.22;0.10;;;;;;;15.66;100.00;98894.84;6338175;22;20253;-47
2021/10/28 05:06:45;;;;;;;5.93;0.45;;;;;;;15.52;100.00;98890.50;6337996;22;20057;-47
2021/10/28 05:09:47;;;;;;;0.30;0.20;;;;;;;15.42;100.00;98887.28;6338248;22;20462;-47
2021/10/28 05:12:50;;;;;;;0.28;0.28;;;;;;;15.43;100.00;98874.00;6338427;22;20439;-48
2021/10/28 05:15:54;;;;;;;0.22;0.22;;;;;;;15.47;100.00;98886.47;6338299;22;20021;-47
2021/10/28 05:18:57;;;;;;;0.50;0.40;;;;;;;15.43;100.00;98879.63;6338579;22;20064;-47
2021/10/28 05:22:00;;;;;;;6.65;0.35;;;;;;;15.33;100.00;98893.28;6338455;22;20038;-48
2021/10/28 05:25:03;;;;;;;4.72;1.05;;;;;;;15.42;100.00;98873.25;6338472;22;20026;-47
2021/10/28 05:28:06;;;;;;;5.78;0.80;;;;;;;15.42;100.00;98880.94;6338231;22;20025;-48
2021/10/28 05:31:09;;;;;;;3.03;1.02;;;;;;;15.37;100.00;98873.34;6338230;22;20509;-47
2021/10/28 05:34:13;;;;;;;4.75;0.73;;;;;;;15.29;100.00;98880.84;6337960;22;20030;-47
2021/10/28 05:37:16;;;;;;;0.13;0.03;;;;;;;15.12;100.00;98884.63;6338149;22;20017;-46
2021/10/28 05:40:21;;;;;;;0.68;0.10;;;;;;;15.24;100.00;98878.88;6337529;22;20098;-47
2021/10/28 05:43:24;;;;;;;2.40;0.52;;;;;;;15.22;100.00;98881.47;6338009;22;20075;-47
2021/10/28 05:46:27;;;;;;;7.88;0.68;;;;;;;15.31;100.00;98872.66;6339291;22;20060;-48
2021/10/28 05:49:31;;;;;;;0.80;0.50;;;;;;;15.36;100.00;98869.00;6339517;22;20067;-48
2021/10/28 05:52:34;;;;;;;0.75;0.35;;;;;;;15.42;100.00;98872.50;6339558;22;20078;-48
2021/10/28 05:55:37;;;;;;;1.45;0.43;;;;;;;15.48;100.00;98859.19;6339538;22;20025;-47
2021/10/28 05:58:40;;;;;;;6.70;0.65;;;;;;;15.54;100.00;98862.66;6339602;22;20025;-47
2021/10/28 06:01:43;;;;;;;0.30;0.30;;;;;;;15.58;100.00;98857.47;6339828;22;20022;-48
2021/10/28 06:04:46;;;;;;;0.35;0.35;;;;;;;15.54;100.00;98869.03;6339427;22;20025;-48
2021/10/28 06:07:49;;;;;;;0.57;0.13;;;;;;;15.56;100.00;98871.28;6339676;22;20029;-48
2021/10/28 06:10:52;;;;;;;0.25;0.17;;;;;;;15.63;100.00;98871.44;6339277;22;20028;-48
2021/10/28 06:13:55;;;;;;;2.72;0.30;;;;;;;15.74;100.00;98859.28;6339769;22;20458;-48
2021/10/28 06:17:06;;;;;;;0.10;0.10;;;;;;;15.70;100.00;98853.97;6339808;22;20109;-48
2021/10/28 06:20:10;;;;;;;1.08;0.40;;;;;;;15.69;100.00;98837.66;6339875;22;20441;-48
2021/10/28 06:23:14;;;;;;;0.10;0.10;;;;;;;15.81;100.00;98841.78;6339341;22;20089;-49
2021/10/28 06:26:18;;;;;;;1.05;0.40;;;;;;;15.90;100.00;98835.75;6339386;22;20022;-46
2021/10/28 06:29:22;;;;;;;2.35;0.20;;;;;;;15.93;100.00;98831.91;6339173;22;20374;-47
2021/10/28 06:32:26;;;;;;;0.75;0.10;;;;;;;15.96;100.00;98842.03;6339155;22;20029;-47
2021/10/28 06:35:32;;;;;;;1.10;0.20;;;;;;;15.98;100.00;98817.00;6339834;22;20025;-47
2021/10/28 06:38:35;;;;;;;1.33;0.30;;;;;;;15.92;100.00;98833.94;6339703;22;20339;-47
2021/10/28 06:41:38;;;;;;;0.57;0.28;;;;;;;15.89;100.00;98831.47;6339218;22;20109;-48
2021/10/28 06:44:43;;;;;;;6.13;0.40;;;;;;;15.83;100.00;98811.88;6339756;22;20037;-47
2021/10/28 06:47:47;;;;;;;7.63;0.40;;;;;;;15.87;100.00;98817.19;6339175;22;20026;-47
2021/10/28 06:50:55;;;;;;;1.20;0.43;;;;;;;15.87;100.00;98822.81;6339480;22;20531;-48
2021/10/28 06:54:07;;;;;;;0.82;0.43;;;;;;;15.92;100.00;98833.19;6338723;22;20025;-48
2021/10/28 07:03:35;;;;;;;0.40;0.25;;;;;;;16.05;100.00;98836.00;6339334;22;20025;-48
2021/10/28 07:06:39;;;;;;;2.95;0.52;;;;;;;16.04;100.00;98842.94;6338416;22;20438;-46
2021/10/28 07:09:48;;;;;;;1.38;0.50;;;;;;;16.03;100.00;98835.78;6339034;22;20469;-47
2021/10/28 07:13:13;;;;;;;0.47;0.30;;;;;;;16.04;100.00;98842.94;6339117;22;20059;-47
2021/10/28 07:16:23;;;;;;;3.47;0.40;;;;;;;16.01;100.00;98841.19;6338839;22;20386;-47
2021/10/28 07:36:37;;;;;;;0.20;0.10;;;;;;;16.12;100.00;98823.38;6339150;22;20434;-47
2021/10/28 07:39:59;;;;;;;0.13;0.13;;;;;;;16.14;100.00;98818.75;6339176;22;20070;-46
2021/10/28 08:19:42;;;;;;;0.90;0.35;;;;;;;16.49;100.00;98795.06;6337222;22;20025;-47
2021/10/28 08:22:54;;;;;;;2.05;1.05;;;;;;;16.39;100.00;98800.41;6336662;22;20025;-46
2021/10/28 08:29:39;;;;;;;2.05;0.22;;;;;;;16.58;100.00;98795.44;6337935;22;20076;-47
2021/10/28 08:32:43;;;;;;;0.63;0.30;;;;;;;16.56;100.00;98791.66;6338620;22;20474;-47
2021/10/28 08:35:55;;;;;;;0.43;0.43;;;;;;;16.51;100.00;98790.47;6338061;22;20064;-47
2021/10/28 08:38:58;;;;;;;6.88;0.35;;;;;;;16.52;100.00;98785.59;6338265;22;20069;-47
2021/10/28 08:42:06;;;;;;;2.28;0.38;;;;;;;16.53;100.00;98782.25;6338408;22;20026;-47
2021/10/28 08:45:14;;;;;;;0.60;0.47;;;;;;;16.50;100.00;98785.38;6338564;22;20073;-47
2021/10/28 08:48:17;;;;;;;5.97;0.20;;;;;;;16.47;100.00;98775.19;6338317;22;20068;-47
2021/10/28 08:51:32;;;;;;;0.10;0.10;;;;;;;16.53;100.00;98782.25;6338551;22;20351;-47
2021/10/28 09:25:52;;;;;;;1.55;0.20;;;;;;;16.60;100.00;98770.34;6340334;22;20099;-47
2021/10/28 09:29:15;;;;;;;0.68;0.30;;;;;;;16.60;100.00;98764.72;6340005;22;20083;-47
2021/10/28 09:46:14;;;;;;;2.63;0.20;;;;;;;16.74;100.00;98733.78;6339398;22;20148;-47
2021/10/28 09:52:31;;;;;;;2.55;0.20;;;;;;;16.88;100.00;98716.31;6340104;22;20109;-48
2021/10/28 09:58:50;;;;;;;0.45;0.45;;;;;;;17.48;100.00;98699.22;6339857;22;20029;-47
2021/10/28 10:02:15;;;;;;;2.03;0.50;;;;;;;17.73;100.00;98697.56;6339785;22;20076;-48
2021/10/28 10:05:26;;;;;;;1.17;0.40;;;;;;;17.90;100.00;98678.16;6338621;22;20367;-47
2021/10/28 10:08:33;;;;;;;2.90;0.60;;;;;;;17.94;100.00;98672.91;6338593;22;20374;-48
2021/10/28 10:11:36;;;;;;;1.17;0.30;;;;;;;18.04;100.00;98664.72;6338193;22;20737;-47
2021/10/28 10:14:41;;;;;;;0.13;0.13;;;;;;;18.01;100.00;98682.72;6338776;22;20021;-47
2021/10/28 10:17:53;;;;;;;2.28;0.30;;;;;;;18.02;100.00;98656.81;6338341;22;20025;-47
2021/10/28 10:21:22;;;;;;;1.38;0.63;;;;;;;17.89;100.00;98653.34;6340135;22;20029;-46
2021/10/28 11:03:06;;;;;;;11.43;0.30;;;;;;;17.63;100.00;98651.50;6339240;22;20106;-47
2021/10/28 11:05:55;;;;;;;0.52;0.30;;;;;;;18.14;100.00;98612.16;6338874;22;20032;-45
2021/10/28 11:19:43;;;;;;;1.23;0.20;;;;;;;18.09;100.00;98604.63;6338805;22;20041;-48
2021/10/28 12:45:52;;;;;;;1.95;0.20;;;;;;;19.40;100.00;98487.97;6338612;22;20026;-47
2021/10/28 13:35:15;;;;;;;1.10;0.20;;;;;;;18.55;100.00;98430.72;6338114;22;20102;-55
2021/10/28 13:49:09;;;;;;;0.10;0.10;;;;;;;17.94;100.00;98433.47;6338052;22;20097;-50
2021/10/28 14:32:12;;;;;;;7.78;1.95;;;;;;;18.00;100.00;98372.06;6339634;22;20096;-54
2021/10/28 15:02:37;;;;;;;8.20;2.08;;;;;;;17.70;100.00;98371.28;6338993;22;20053;-55
2021/10/28 15:38:41;;;;;;;4.43;0.63;;;;;;;17.45;100.00;98345.69;6338636;22;20022;-54
2021/10/28 15:42:24;;;;;;;15.68;1.88;;;;;;;17.48;100.00;98353.00;6338020;22;20427;-52
2021/10/28 16:21:54;;;;;;;2.28;1.20;;;;;;;16.12;100.00;98332.63;6338311;22;20048;-52
2021/10/28 16:24:57;;;;;;;8.20;1.30;;;;;;;16.07;100.00;98344.00;6338326;22;20360;-51
2021/10/28 16:28:00;;;;;;;7.35;2.08;;;;;;;15.97;100.00;98340.94;6338165;22;20096;-50
2021/10/28 16:31:03;;;;;;;13.75;2.20;;;;;;;16.02;100.00;98345.66;6337870;22;20084;-50
2021/10/28 16:34:06;;;;;;;5.18;1.85;;;;;;;15.97;100.00;98345.78;6338216;22;20509;-49
2021/10/28 16:37:12;;;;;;;9.05;2.80;;;;;;;15.96;100.00;98342.22;6338718;22;20025;-50
2021/10/28 16:40:15;;;;;;;3.58;1.40;;;;;;;15.90;100.00;98344.41;6338324;22;20025;-51
2021/10/28 16:43:19;;;;;;;4.60;1.27;;;;;;;15.84;100.00;98349.41;6338443;22;20351;-50
2021/10/28 16:46:22;;;;;;;29.77;2.60;;;;;;;15.91;100.00;98338.28;6338248;22;20088;-50
2021/10/28 16:49:25;;;;;;;1.00;1.00;;;;;;;15.89;100.00;98320.47;6338632;22;20026;-51
2021/10/28 16:52:28;;;;;;;3.33;1.23;;;;;;;15.95;100.00;98332.28;6338184;22;20076;-51
2021/10/28 16:55:33;;;;;;;2.53;0.63;;;;;;;16.01;100.00;98334.94;6337861;22;20054;-53
2021/10/28 16:58:36;;;;;;;7.22;1.98;;;;;;;15.93;100.00;98332.84;6337987;22;20455;-53
2021/10/28 17:01:40;;;;;;;2.17;1.23;;;;;;;15.87;100.00;98325.88;6338285;22;20041;-53
2021/10/28 17:04:46;;;;;;;6.57;2.08;;;;;;;15.80;100.00;98326.56;6338155;22;20083;-53
2021/10/28 17:07:50;;;;;;;1.75;0.85;;;;;;;15.71;100.00;98321.41;6337972;22;20076;-51
2021/10/28 17:10:53;;;;;;;4.85;1.27;;;;;;;15.75;100.00;98327.44;6338213;22;20079;-58
2021/10/28 17:13:56;;;;;;;8.80;1.65;;;;;;;15.56;100.00;98321.28;6338697;22;20037;-59
2021/10/28 17:16:59;;;;;;;3.50;1.35;;;;;;;15.55;100.00;98326.13;6326079;22;20072;-59
2021/10/28 17:20:06;;;;;;;4.18;1.55;;;;;;;15.88;100.00;98318.94;6308478;22;20120;-59
2021/10/28 17:23:15;;;;;;;2.58;0.95;;;;;;;15.88;100.00;98318.94;6312754;22;20026;-60
2021/10/28 17:26:18;;;;;;;1.45;0.70;;;;;;;15.86;100.00;98322.31;6338283;22;20068;-57
2021/10/28 17:29:22;;;;;;;2.67;1.65;;;;;;;15.89;100.00;98331.69;6337949;22;20029;-58
2021/10/28 17:32:25;;;;;;;5.25;1.63;;;;;;;15.89;100.00;98321.22;6338256;22;20022;-54
2021/10/28 17:35:29;;;;;;;0.73;0.50;;;;;;;15.80;100.00;98318.13;6338099;22;20025;-54
2021/10/28 17:38:32;;;;;;;0.93;0.82;;;;;;;15.77;100.00;98324.84;6337759;22;20760;-58
2021/10/28 17:41:35;;;;;;;1.48;0.52;;;;;;;15.80;100.00;98330.13;6338646;22;20026;-57
2021/10/28 17:44:49;;;;;;;2.78;1.20;;;;;;;15.86;100.00;98324.34;6340263;22;20072;-57
2021/10/28 17:47:53;;;;;;;2.80;0.70;;;;;;;15.76;100.00;98323.34;6339824;22;20026;-57
2021/10/28 17:50:58;;;;;;;5.78;1.25;;;;;;;15.70;100.00;98319.94;6340348;22;20056;-56
2021/10/28 17:54:01;;;;;;;2.55;0.90;;;;;;;15.72;100.00;98317.31;6320762;22;20474;-57
2021/10/28 17:57:05;;;;;;;2.05;0.55;;;;;;;15.75;100.00;98321.81;6340119;22;20060;-57
2021/10/28 18:00:12;;;;;;;3.33;1.05;;;;;;;15.77;100.00;98316.41;6339842;22;20022;-58
2021/10/28 18:03:19;;;;;;;1.88;0.38;;;;;;;15.79;100.00;98311.00;6340099;22;20022;-58
2021/10/28 18:06:22;;;;;;;2.30;0.90;;;;;;;15.82;100.00;98305.06;6339801;22;20060;-57
2021/10/28 18:09:26;;;;;;;0.75;0.25;;;;;;;15.87;100.00;98304.16;6339184;22;20089;-57
2021/10/28 18:12:29;;;;;;;0.40;0.30;;;;;;;15.83;100.00;98300.19;6339442;22;20022;-57
2021/10/28 18:15:33;;;;;;;3.78;0.95;;;;;;;15.79;100.00;98311.75;6339865;22;20025;-57
2021/10/28 18:18:37;;;;;;;5.80;1.27;;;;;;;15.79;100.00;98299.78;6339476;22;20485;-57
2021/10/28 18:21:43;;;;;;;3.45;0.90;;;;;;;15.70;100.00;98294.66;6340068;22;20026;-57
2021/10/28 18:24:45;;;;;;;5.35;0.90;;;;;;;15.75;100.00;98288.13;6339712;22;20451;-56
2021/10/28 18:27:55;;;;;;;1.15;0.50;;;;;;;15.87;100.00;98280.97;6339400;22;20025;-57
2021/10/28 18:30:58;;;;;;;0.77;0.30;;;;;;;15.88;100.00;98285.25;6339716;22;20027;-57
2021/10/28 18:34:02;;;;;;;1.75;0.93;;;;;;;15.87;100.00;98278.16;6339378;22;20025;-57
2021/10/28 18:37:06;;;;;;;0.85;0.38;;;;;;;15.87;100.00;98273.25;6339638;22;20054;-58
2021/10/28 18:40:11;;;;;;;2.00;0.57;;;;;;;15.69;100.00;98276.31;6339168;22;20466;-57
2021/10/28 18:43:16;;;;;;;2.35;0.63;;;;;;;15.72;100.00;98266.81;6339097;22;20378;-58
2021/10/28 18:46:21;;;;;;;0.68;0.40;;;;;;;15.75;100.00;98274.09;6320331;22;20084;-57
2021/10/28 18:49:25;;;;;;;1.20;0.50;;;;;;;15.77;100.00;98261.03;6320467;22;20072;-58
2021/10/28 18:52:29;;;;;;;3.42;0.98;;;;;;;15.80;100.00;98264.81;6319606;22;20064;-57
2021/10/28 18:55:33;;;;;;;1.33;0.47;;;;;;;15.88;100.00;98254.38;6339071;22;20512;-58
2021/10/28 18:58:37;;;;;;;1.05;0.65;;;;;;;15.73;100.00;98262.69;6320036;22;20022;-57
2021/10/28 19:01:41;;;;;;;0.73;0.65;;;;;;;15.85;100.00;98247.06;6339709;22;20021;-57
2021/10/28 19:04:44;;;;;;;2.45;0.52;;;;;;;15.81;100.00;98250.22;6339211;22;20111;-58
2021/10/28 19:07:47;;;;;;;1.95;0.98;;;;;;;15.84;100.00;98242.75;6339132;22;20022;-58
2021/10/28 19:10:51;;;;;;;6.60;0.73;;;;;;;15.67;100.00;98243.19;6339140;22;20022;-58
2021/10/28 19:13:55;;;;;;;1.45;0.28;;;;;;;15.84;100.00;98235.09;6320581;22;20319;-58
2021/10/28 19:16:58;;;;;;;0.70;0.70;;;;;;;15.83;100.00;98238.44;6319441;22;20289;-58
2021/10/28 19:20:04;;;;;;;0.75;0.70;;;;;;;15.85;100.00;98242.19;6339492;22;20026;-58
2021/10/28 19:23:07;;;;;;;1.70;0.70;;;;;;;15.84;100.00;98234.31;6320002;22;20103;-59
2021/10/28 19:26:10;;;;;;;8.50;1.05;;;;;;;15.90;100.00;98232.09;6339086;22;20053;-57
2021/10/28 19:29:13;;;;;;;3.63;0.75;;;;;;;15.96;100.00;98221.47;6338907;22;20037;-57
2021/10/28 19:32:20;;;;;;;1.33;0.40;;;;;;;15.97;100.00;98220.19;6339482;22;20136;-57
2021/10/28 19:35:26;;;;;;;0.30;0.30;;;;;;;15.88;100.00;98218.63;6319131;22;20061;-58
2021/10/28 19:48:09;;;;;;;2.25;0.70;;;;;;;15.82;100.00;98197.63;6338429;22;20022;-57
2021/10/28 19:51:12;;;;;;;1.85;0.50;;;;;;;14.56;100.00;98205.78;6338394;22;20067;-57
2021/10/28 19:54:15;;;;;;;5.32;0.43;;;;;;;14.83;100.00;98207.25;6319634;22;20029;-58
2021/10/28 19:57:20;;;;;;;3.78;1.33;;;;;;;15.23;100.00;98198.63;6338897;22;20076;-58
2021/10/28 20:20:22;;;;;;;;;;;;;;;15.31;100.00;98149.72;6338850;22;20405;-56
2021/10/28 20:23:24;;;;;;;1.48;0.63;;;;;;;15.26;100.00;98166.69;6338363;22;19913;-56
2021/10/28 20:26:28;;;;;;;2.25;0.73;;;;;;;15.17;100.00;98151.88;6338145;22;20026;-57
2021/10/28 20:29:31;;;;;;;1.77;1.08;;;;;;;15.27;100.00;98148.56;6338021;22;20493;-56
2021/10/28 20:32:34;;;;;;;3.92;1.45;;;;;;;14.92;100.00;98152.75;6338313;22;20034;-56
2021/10/28 20:39:00;;;;;;;13.70;1.80;;;;;;;15.34;100.00;98147.88;6338200;22;20148;-56
2021/10/28 20:42:04;;;;;;;3.25;1.90;;;;;;;15.39;100.00;98139.31;6338362;22;20071;-56
2021/10/28 20:45:14;;;;;;;2.67;1.40;;;;;;;15.32;100.00;98133.63;6337445;22;20029;-57
2021/10/28 20:48:19;;;;;;;1.33;0.98;;;;;;;15.31;100.00;98137.75;6318845;22;20064;-57
2021/10/28 20:51:22;;;;;;;3.03;1.00;;;;;;;15.36;100.00;98134.03;6318309;22;20079;-57
2021/10/28 20:54:25;;;;;;;7.07;1.15;;;;;;;15.32;100.00;98133.63;6337547;22;20067;-57
2021/10/28 20:57:30;;;;;;;10.50;1.98;;;;;;;14.02;100.00;98132.84;6337953;22;20086;-57
2021/10/28 21:00:33;;;;;;;4.35;0.70;;;;;;;13.87;100.00;98138.25;6338042;22;20466;-58
2021/10/28 21:03:36;;;;;;;3.45;1.02;;;;;;;14.77;100.00;98125.31;6338211;22;20102;-58
2021/10/28 21:06:40;;;;;;;3.22;1.80;;;;;;;15.03;100.00;98113.97;6338118;22;20021;-58
2021/10/28 21:09:43;;;;;;;2.90;1.77;;;;;;;15.15;100.00;98103.22;6337917;22;20388;-58
2021/10/28 21:12:46;;;;;;;5.32;1.08;;;;;;;15.08;100.00;98110.28;6338278;22;20462;-57
2021/10/28 21:15:49;;;;;;;10.75;2.50;;;;;;;15.11;100.00;98102.84;6338312;22;20044;-58
2021/10/28 21:18:53;;;;;;;2.80;2.05;;;;;;;15.13;100.00;98106.59;6340336;22;20068;-55
2021/10/28 21:21:55;;;;;;;1.42;0.65;;;;;;;14.93;100.00;98086.97;6340305;22;20026;-55
2021/10/28 21:24:58;;;;;;;1.65;0.77;;;;;;;15.10;100.00;98090.09;6340075;22;20025;-55
2021/10/28 21:28:01;;;;;;;2.55;1.48;;;;;;;15.13;100.00;98072.94;6339790;22;20069;-56
2021/10/28 21:31:06;;;;;;;1.92;1.17;;;;;;;14.24;100.00;98077.16;6340409;22;20510;-56
2021/10/28 21:34:09;;;;;;;4.93;1.73;;;;;;;13.92;100.00;98078.63;6340171;22;20076;-56
2021/10/28 21:37:15;;;;;;;4.53;1.30;;;;;;;13.78;100.00;98072.31;6340179;22;20067;-56
2021/10/28 21:40:18;;;;;;;1.10;0.85;;;;;;;13.73;100.00;98080.81;6340197;22;20077;-56
2021/10/28 21:43:22;;;;;;;1.58;0.70;;;;;;;13.73;100.00;98070.38;6340582;22;20386;-56
2021/10/28 21:46:30;;;;;;;1.60;0.85;;;;;;;13.74;100.00;98071.13;6339368;22;20026;-56
2021/10/28 21:49:35;;;;;;;4.57;1.23;;;;;;;14.17;100.00;98046.25;6340075;22;20041;-56
2021/10/28 21:52:41;;;;;;;2.00;0.90;;;;;;;14.36;100.00;98044.06;6339645;22;20057;-56
2021/10/28 21:56:03;;;;;;;2.17;0.90;;;;;;;14.41;100.00;98034.78;6339776;22;20048;-55
2021/10/28 21:59:57;;;;;;;2.67;1.88;;;;;;;14.43;100.00;98034.97;6339920;22;20338;-55
2021/10/28 22:03:12;;;;;;;7.72;1.95;;;;;;;14.49;100.00;98035.59;6340046;22;20041;-56
2021/10/28 22:26:16;;;;;;;2.13;0.95;;;;;;;14.79;100.00;97993.81;6339334;22;20021;-58
2021/10/28 22:29:19;;;;;;;4.93;1.17;;;;;;;14.71;100.00;97998.63;6338367;22;20519;-57
2021/10/28 22:32:22;;;;;;;1.40;0.60;;;;;;;14.65;100.00;98000.81;6340057;22;20023;-56
2021/10/28 22:38:34;;;;;;;2.25;1.08;;;;;;;14.72;100.00;98000.13;6339742;22;20040;-57
2021/10/28 22:41:37;;;;;;;14.88;1.38;;;;;;;14.66;100.00;98002.31;6339315;22;20455;-58
2021/10/28 22:44:41;;;;;;;2.30;0.85;;;;;;;14.67;100.00;98009.44;6339584;22;20049;-57
2021/10/28 22:47:44;;;;;;;1.20;0.65;;;;;;;14.71;100.00;98032.25;6339198;22;20026;-60
2021/10/28 22:50:47;;;;;;;0.75;0.40;;;;;;;14.62;100.00;98023.59;6339665;22;20057;-59
2021/10/28 22:53:52;;;;;;;2.25;0.43;;;;;;;14.52;100.00;98020.50;6339320;22;20075;-59
2021/10/28 22:56:56;;;;;;;0.10;0.03;;;;;;;14.41;100.00;98026.38;6339177;22;20091;-59
2021/10/28 23:00:01;;;;;;;0.20;0.10;;;;;;;14.31;100.00;98014.88;6339338;22;20024;-59
2021/10/28 23:23:16;;;;;;;0.10;0.00;;;;;;;14.03;100.00;98000.03;6339225;22;20026;-59
2021/10/28 23:26:19;;;;;;;0.10;0.10;;;;;;;14.04;100.00;97987.53;6339214;22;20025;-59
2021/10/28 23:29:21;;;;;;;0.30;0.17;;;;;;;13.92;100.00;97991.88;6338830;22;20066;-59
2021/10/28 23:32:24;;;;;;;0.65;0.20;;;;;;;13.82;100.00;97988.06;6339580;22;20340;-59
2021/10/28 23:35:28;;;;;;;0.10;0.10;;;;;;;13.73;100.00;97980.84;6338853;22;20037;-58
2021/10/28 23:38:30;;;;;;;0.52;0.40;;;;;;;13.73;100.00;97983.63;6339134;22;20029;-58
2021/10/28 23:41:33;;;;;;;0.10;0.10;;;;;;;13.73;100.00;97974.53;6338705;22;20132;-58
2021/10/28 23:44:36;;;;;;;0.17;0.10;;;;;;;13.78;100.00;97976.41;6339187;22;20443;-58
2021/10/28 23:47:39;;;;;;;0.85;0.10;;;;;;;13.73;100.00;97963.31;6338487;22;20022;-58
2021/10/28 23:50:42;;;;;;;0.20;0.15;;;;;;;13.62;100.00;97959.47;6339106;22;20076;-58
2021/10/28 23:53:46;;;;;;;0.30;0.10;;;;;;;13.56;100.00;97953.25;6338298;22;20029;-58
2021/10/28 23:56:49;;;;;;;0.10;0.10;;;;;;;13.70;100.00;97959.56;6339049;22;20025;-58
2021/10/28 23:59:51;;;;;;;0.30;0.22;;;;;;;13.60;100.00;97930.53;6338406;22;20335;-58
